Cervia Air Base

LIPC · Emilia-Romagna, 意大利

罗盘
风向 的 风向 290° Cervia Air Base 11/29
风: 8 kt, 3 beaufort

8 kt

1 kt
改变
0 ft 1.000 2.000 3.000 4.000 5.000
Cloud Cloud Cloud Cloud
SCT 400
Cloud Cloud Cloud Cloud Cloud Cloud
BKN 1.000
METAR LIPC 281155Z 29008KT 6000 -RA SCT004 BKN010 12/12 Q1016

METAR Cervia Air Base - LIPC

Cervia Air Base是,意大利中的中型机场。 该机场位于纬度44,22420和经度12,30720。 该机场有一条跑道: 11/29. 本场的ICAO机场代码为LIPC。 机场在Milano FIR中。

该航空气象观测是针对Cervia Air Base在2024年2月28日 12:55, 当地时间进行的。

机场观察

风向为290°,速度为8 kt。

可见度为6 km。

有疏云,零星散落的云朵在400 ft的高度 和 碎云在1.000 ft的高度。 破损或更高的上限为1.000 ft。

当前天气为光 雨。 温度和风寒是12 °C。 露点为12 °C,相对湿度为100%。 海平面上的气压为1016 hPa (QNH)。

白天

今天,太阳从06:50升起,在17:56降落。 这适用于Cervia Air Base,世界夏令时可能有所不同。 当地时间与世界标准时间之间的时差为+1 小时。 当前,没有夏令时有效。

公司介绍

我们没有关于这个机场的公司信息。

体会

到Vliegles.nl去找飞行课程,跳伞和其他飞行体验。 浏览页面,了解Cervia Air Base附近所有可用的活动。 你也可以使用搜索功能来寻找你所在地附近的特定飞行课程、跳伞或其他飞行体验。

跑道

Id 标题 侧风 逆风 侧风 %
11/29 115°-295° 8 kt 9 %

逆风成分最大的方向会被突出显示,并用于横风计算。 这并不一定意味着这个方向在使用。

乌云

400 ft SCT 疏云,零星散落的云朵
1.000 ft BKN 碎云

温度 & 天气

天气 光 雨
温度 12 °C
露点 12 °C
相对湿度 100%
Kp-index 0 (0-9)

白天

日出
06:50
中午
12:23
日落
17:56 (4:44)

小工具

你想在你的网站上有一个关于Cervia Air Base的当前航空天气(METAR)的小部件吗?

显示HTML代码
?>